createdAt,value
2024-02-02T00:00:27.792Z,41.78
2024-02-02T00:03:30.560Z,42.67
2024-02-02T00:06:33.039Z,40.13
2024-02-02T00:09:35.727Z,38.92
2024-02-02T00:12:38.513Z,40.30
2024-02-02T00:15:40.971Z,35.47
2024-02-02T00:18:43.354Z,40.15
2024-02-02T00:21:45.694Z,36.70
2024-02-02T00:24:49.050Z,37.53
2024-02-02T00:27:51.296Z,36.10
2024-02-02T00:30:53.509Z,37.08
2024-02-02T00:33:55.814Z,35.80
2024-02-02T00:36:58.206Z,36.25
2024-02-02T00:40:00.587Z,36.30
2024-02-02T00:43:03.146Z,36.58
2024-02-02T00:46:05.747Z,35.95
2024-02-02T00:49:07.949Z,36.85
2024-02-02T00:52:10.252Z,38.00
2024-02-02T00:55:12.369Z,37.22
2024-02-02T00:58:14.431Z,37.95
2024-02-02T01:01:16.541Z,39.85
2024-02-02T01:04:18.776Z,38.47
2024-02-02T01:07:21.134Z,38.63
2024-02-02T01:10:23.605Z,40.67
2024-02-02T01:13:25.926Z,39.42
2024-02-02T01:16:28.860Z,42.65
2024-02-02T01:19:32.289Z,46.42
2024-02-02T01:22:34.651Z,40.50
2024-02-02T01:25:36.815Z,43.50
2024-02-02T01:28:39.233Z,43.90
2024-02-02T01:31:41.521Z,42.00
2024-02-02T01:34:43.826Z,42.42
2024-02-02T01:37:46.201Z,42.67
2024-02-02T01:40:48.298Z,41.30
2024-02-02T01:43:50.600Z,37.08
2024-02-02T01:46:52.778Z,35.47
2024-02-02T01:49:55.064Z,34.70
2024-02-02T01:52:57.319Z,40.17
2024-02-02T01:55:59.538Z,39.33
2024-02-02T01:59:04.758Z,41.20
2024-02-02T02:02:07.937Z,38.63
2024-02-02T02:05:11.259Z,39.08
2024-02-02T02:08:13.556Z,40.58
2024-02-02T02:11:16.118Z,40.13
2024-02-02T02:14:18.489Z,39.80
2024-02-02T02:17:21.093Z,35.08
2024-02-02T02:20:26.983Z,27.45
2024-02-02T02:23:29.643Z,23.75
2024-02-02T02:26:32.197Z,17.40
2024-02-02T02:29:34.432Z,19.52
2024-02-02T02:32:36.800Z,23.52
2024-02-02T02:35:39.019Z,24.27
2024-02-02T02:38:41.283Z,25.85
2024-02-02T02:41:43.559Z,18.48
2024-02-02T02:44:45.728Z,15.48
2024-02-02T02:47:48.059Z,11.75
2024-02-02T02:50:50.692Z,11.82
2024-02-02T02:53:52.894Z,9.30
2024-02-02T02:56:55.137Z,8.00
2024-02-02T02:59:57.605Z,7.53
2024-02-02T03:03:00.349Z,8.55
2024-02-02T03:06:02.827Z,8.18
2024-02-02T03:09:06.128Z,8.85
2024-02-02T03:12:08.934Z,8.95
2024-02-02T03:15:12.392Z,8.48
2024-02-02T03:18:15.983Z,6.95
2024-02-02T03:21:18.504Z,7.53
2024-02-02T03:24:21.848Z,7.22
2024-02-02T03:27:24.248Z,7.53
2024-02-02T03:30:28.738Z,7.68
2024-02-02T03:33:31.673Z,7.00
2024-02-02T03:36:34.459Z,7.68
2024-02-02T03:39:37.555Z,7.88
2024-02-02T03:42:39.852Z,7.60
2024-02-02T03:45:42.167Z,7.78
2024-02-02T03:48:44.582Z,7.15
2024-02-02T03:51:47.052Z,8.48
2024-02-02T03:54:49.542Z,8.45
2024-02-02T03:57:51.918Z,7.90
2024-02-02T04:00:54.243Z,8.05
2024-02-02T04:03:57.303Z,7.10
2024-02-02T04:07:00.169Z,7.28
2024-02-02T04:10:02.542Z,8.27
2024-02-02T04:13:06.451Z,8.18
2024-02-02T04:16:08.830Z,7.10
2024-02-02T04:19:16.367Z,7.80
2024-02-02T04:22:18.730Z,7.27
2024-02-02T04:25:21.024Z,6.82
2024-02-02T04:28:23.456Z,7.32
2024-02-02T04:31:25.707Z,7.80
2024-02-02T04:34:28.394Z,7.07
2024-02-02T04:37:31.194Z,8.00
2024-02-02T04:40:34.001Z,7.57
2024-02-02T04:43:36.631Z,7.13
2024-02-02T04:46:38.929Z,6.30
2024-02-02T04:49:41.236Z,6.80
2024-02-02T04:52:46.148Z,5.90
2024-02-02T04:55:48.365Z,6.80
2024-02-02T04:58:53.400Z,7.70
2024-02-02T05:01:55.746Z,7.88
2024-02-02T05:04:57.923Z,7.80
2024-02-02T05:08:00.158Z,7.47
2024-02-02T05:11:02.214Z,7.03
2024-02-02T05:14:04.522Z,8.02
2024-02-02T05:17:06.837Z,6.43
2024-02-02T05:20:09.008Z,7.70
2024-02-02T05:23:12.079Z,6.57
2024-02-02T05:26:14.272Z,5.78
2024-02-02T05:29:16.397Z,6.22
2024-02-02T05:32:18.641Z,6.57
2024-02-02T05:35:20.872Z,6.95
2024-02-02T05:38:23.048Z,7.47
2024-02-02T05:41:25.219Z,7.93
2024-02-02T05:44:27.396Z,5.22
2024-02-02T05:47:29.662Z,5.88
2024-02-02T05:50:32.673Z,6.53
2024-02-02T05:53:34.906Z,7.03
2024-02-02T05:56:37.285Z,6.28
2024-02-02T05:59:39.709Z,7.05
2024-02-02T06:02:43.321Z,6.75
2024-02-02T06:05:45.625Z,6.57
2024-02-02T06:08:48.008Z,8.27
2024-02-02T06:11:50.076Z,7.55
2024-02-02T06:14:52.232Z,7.15
2024-02-02T06:17:54.438Z,7.40
2024-02-02T06:20:56.711Z,8.80
2024-02-02T06:23:59.123Z,8.57
2024-02-02T06:27:01.322Z,8.02
2024-02-02T06:30:05.184Z,9.70
2024-02-02T06:33:08.134Z,6.57
2024-02-02T06:36:10.779Z,7.95
2024-02-02T06:39:13.467Z,8.05
2024-02-02T06:42:16.578Z,7.65
2024-02-02T06:45:18.907Z,6.20
2024-02-02T06:48:22.764Z,6.03
2024-02-02T06:51:25.454Z,4.80
2024-02-02T06:54:27.760Z,5.57
2024-02-02T06:57:33.592Z,6.35
2024-02-02T07:00:35.962Z,7.03
2024-02-02T07:03:38.853Z,6.45
2024-02-02T07:06:42.152Z,5.93
2024-02-02T07:09:57.614Z,6.07
2024-02-02T07:13:01.332Z,7.90
2024-02-02T07:16:04.133Z,7.88
2024-02-02T07:19:31.978Z,6.97
2024-02-02T07:22:42.514Z,7.28
2024-02-02T07:25:44.710Z,6.53
2024-02-02T07:28:46.779Z,5.60
2024-02-02T07:31:49.161Z,7.20
2024-02-02T07:34:55.360Z,9.63
2024-02-02T07:38:05.318Z,7.55
2024-02-02T07:41:13.662Z,7.28
2024-02-02T07:44:16.354Z,8.13
2024-02-02T07:47:18.468Z,7.72
2024-02-02T07:50:20.686Z,7.88
2024-02-02T07:53:24.100Z,7.75
2024-02-02T07:56:27.250Z,8.40
2024-02-02T07:59:29.465Z,9.05
2024-02-02T08:02:31.637Z,7.32
2024-02-02T08:05:38.569Z,7.13
2024-02-02T08:08:41.031Z,6.63
2024-02-02T08:11:43.229Z,5.43
2024-02-02T08:14:45.332Z,6.32
2024-02-02T08:17:47.441Z,6.28
2024-02-02T08:20:49.649Z,8.88
2024-02-02T08:23:51.801Z,7.35
2024-02-02T08:26:54.764Z,8.48
2024-02-02T08:29:57.227Z,8.55
2024-02-02T08:32:59.472Z,7.88
2024-02-02T08:36:01.834Z,7.88
2024-02-02T08:39:04.289Z,7.50
2024-02-02T08:42:15.857Z,6.10
2024-02-02T08:45:44.554Z,6.03
2024-02-02T08:48:48.408Z,6.60
2024-02-02T08:51:52.735Z,7.35
2024-02-02T08:54:55.062Z,10.00
2024-02-02T08:58:03.245Z,9.20
2024-02-02T09:01:08.120Z,7.30
2024-02-02T09:04:34.617Z,6.50
2024-02-02T09:07:37.365Z,7.45
2024-02-02T09:10:41.862Z,6.75
2024-02-02T09:13:45.864Z,4.32
2024-02-02T09:16:50.846Z,6.97
2024-02-02T09:19:56.819Z,8.50
2024-02-02T09:23:00.588Z,8.18
2024-02-02T09:26:12.594Z,10.43
2024-02-02T09:29:15.302Z,8.82
2024-02-02T09:32:17.613Z,7.22
2024-02-02T09:35:55.309Z,6.97
2024-02-02T09:38:58.772Z,10.40
2024-02-02T09:42:01.229Z,10.98
2024-02-02T09:45:28.797Z,10.00
2024-02-02T09:49:02.321Z,9.85
2024-02-02T09:52:39.784Z,8.73
2024-02-02T09:56:11.591Z,9.50
2024-02-02T09:59:23.901Z,6.60
2024-02-02T10:02:31.563Z,8.30
2024-02-02T10:06:04.791Z,8.33
2024-02-02T10:09:23.279Z,7.90
2024-02-02T10:12:49.607Z,9.15
2024-02-02T10:16:31.451Z,6.63
2024-02-02T10:19:45.991Z,8.85
2024-02-02T10:23:09.773Z,9.00
2024-02-02T10:26:29.831Z,7.57
2024-02-02T10:29:44.292Z,9.52
2024-02-02T10:32:55.529Z,8.30
2024-02-02T10:36:00.620Z,19.38
2024-02-02T10:39:24.360Z,7.25
2024-02-02T10:42:47.560Z,7.18
2024-02-02T10:46:07.933Z,6.65
2024-02-02T10:49:35.326Z,5.30
2024-02-02T10:52:59.089Z,4.13
2024-02-02T10:56:26.185Z,4.97
2024-02-02T10:59:34.625Z,4.50
2024-02-02T11:02:53.047Z,5.10
2024-02-02T11:09:13.359Z,4.40
2024-02-02T11:12:24.765Z,4.53
2024-02-02T11:15:48.472Z,4.22
2024-02-02T11:19:22.598Z,5.82
2024-02-02T11:22:55.786Z,6.40
2024-02-02T11:26:08.510Z,6.13
2024-02-02T11:29:24.402Z,8.88
2024-02-02T11:32:45.750Z,5.93
2024-02-02T11:35:59.663Z,4.80
2024-02-02T11:39:01.855Z,6.40
2024-02-02T11:42:05.510Z,5.25
2024-02-02T11:45:19.433Z,3.78
2024-02-02T11:48:35.240Z,4.10
2024-02-02T11:51:38.804Z,2.42
2024-02-02T11:55:22.678Z,3.88
2024-02-02T11:58:26.610Z,3.30
2024-02-02T12:01:35.466Z,5.03
2024-02-02T12:04:43.452Z,2.88
2024-02-02T12:08:04.789Z,3.42
2024-02-02T12:11:11.212Z,3.03
2024-02-02T12:14:39.595Z,3.40
2024-02-02T12:17:41.974Z,3.80
2024-02-02T12:20:45.387Z,4.25
2024-02-02T12:23:48.685Z,4.15
2024-02-02T12:26:51.413Z,5.30
2024-02-02T12:29:53.694Z,5.63
2024-02-02T12:32:58.713Z,7.28
2024-02-02T12:36:07.127Z,6.80
2024-02-02T12:39:12.194Z,4.15
2024-02-02T12:42:14.496Z,5.18
2024-02-02T12:45:17.619Z,5.22
2024-02-02T12:48:21.177Z,5.35
2024-02-02T12:51:26.093Z,4.20
2024-02-02T12:54:28.263Z,5.18
2024-02-02T12:57:30.636Z,4.97
2024-02-02T13:00:33.261Z,5.90
2024-02-02T13:03:41.330Z,3.90
2024-02-02T13:06:47.151Z,4.97
2024-02-02T13:09:52.567Z,6.22
2024-02-02T13:12:54.805Z,6.72
2024-02-02T13:15:57.141Z,7.28
2024-02-02T13:19:00.156Z,9.80
2024-02-02T13:22:03.395Z,8.48
2024-02-02T13:25:11.745Z,7.75
2024-02-02T13:31:20.040Z,7.07
2024-02-02T13:34:23.354Z,5.57
2024-02-02T13:37:38.974Z,7.93
2024-02-02T13:40:42.149Z,4.85
2024-02-02T13:43:45.718Z,5.57
2024-02-02T13:46:48.483Z,5.68
2024-02-02T13:49:57.101Z,6.38
2024-02-02T13:52:59.781Z,7.03
2024-02-02T13:56:11.516Z,8.38
2024-02-02T13:59:20.618Z,5.55
2024-02-02T14:02:25.570Z,5.82
2024-02-02T14:05:27.686Z,5.07
2024-02-02T14:08:40.563Z,4.15
2024-02-02T14:11:42.976Z,4.97
2024-02-02T14:14:45.682Z,4.13
2024-02-02T14:17:48.251Z,4.45
2024-02-02T14:20:50.537Z,7.30
2024-02-02T14:23:52.789Z,6.68
2024-02-02T14:26:57.157Z,7.32
2024-02-02T14:29:59.412Z,5.40
2024-02-02T14:33:13.632Z,5.53
2024-02-02T14:36:23.932Z,5.07
2024-02-02T14:39:27.704Z,4.97
2024-02-02T14:42:30.477Z,5.53
2024-02-02T14:45:34.548Z,5.50
2024-02-02T14:48:38.647Z,5.18
2024-02-02T14:51:42.144Z,3.95
2024-02-02T14:54:46.263Z,4.50
2024-02-02T14:57:49.399Z,5.70
2024-02-02T15:00:53.954Z,6.18
2024-02-02T15:03:56.213Z,7.18
2024-02-02T15:06:59.212Z,6.55
2024-02-02T15:10:01.674Z,6.43
2024-02-02T15:13:05.719Z,7.43
2024-02-02T15:16:10.804Z,5.47
2024-02-02T15:19:13.064Z,4.75
2024-02-02T15:22:15.274Z,6.53
2024-02-02T15:25:17.450Z,6.53
2024-02-02T15:28:19.620Z,8.98
2024-02-02T15:31:21.935Z,8.82
2024-02-02T15:34:24.734Z,6.32
2024-02-02T15:37:27.761Z,7.45
2024-02-02T15:40:29.996Z,6.70
2024-02-02T15:43:32.124Z,5.60
2024-02-02T15:46:34.335Z,5.40
2024-02-02T15:49:36.685Z,6.90
2024-02-02T15:52:40.262Z,3.65
2024-02-02T15:55:42.464Z,4.10
2024-02-02T15:58:45.040Z,4.68
2024-02-02T16:01:47.932Z,3.70
2024-02-02T16:04:57.189Z,7.82
2024-02-02T16:07:59.271Z,10.82
2024-02-02T16:11:01.307Z,7.93
2024-02-02T16:14:03.520Z,9.52
2024-02-02T16:17:07.755Z,8.55
2024-02-02T16:20:11.217Z,9.52
2024-02-02T16:23:13.361Z,8.38
2024-02-02T16:26:15.596Z,8.23
2024-02-02T16:29:17.861Z,9.65
2024-02-02T16:32:19.953Z,8.88
2024-02-02T16:35:25.643Z,10.15
2024-02-02T16:38:28.353Z,8.85
2024-02-02T16:41:30.500Z,10.93
2024-02-02T16:44:32.889Z,10.35
2024-02-02T16:47:34.977Z,9.88
2024-02-02T16:50:38.271Z,9.15
2024-02-02T16:53:43.096Z,9.23
2024-02-02T16:56:45.390Z,9.95
2024-02-02T16:59:48.055Z,10.77
2024-02-02T17:02:52.335Z,9.90
2024-02-02T17:05:54.555Z,9.30
2024-02-02T17:08:57.550Z,10.60
2024-02-02T17:11:59.846Z,10.75
2024-02-02T17:15:01.931Z,12.02
2024-02-02T17:18:04.298Z,13.00
2024-02-02T17:21:09.487Z,11.05
2024-02-02T17:24:11.770Z,13.43
2024-02-02T17:27:13.905Z,13.65
2024-02-02T17:30:18.174Z,14.52
2024-02-02T17:33:21.371Z,13.23
2024-02-02T17:36:23.619Z,13.85
2024-02-02T17:39:25.749Z,13.65
2024-02-02T17:42:27.867Z,14.27
2024-02-02T17:45:29.988Z,13.27
2024-02-02T17:48:33.428Z,13.55
2024-02-02T17:51:35.618Z,14.10
2024-02-02T17:54:37.763Z,15.23
2024-02-02T17:57:40.088Z,16.00
2024-02-02T18:00:42.440Z,16.00
2024-02-02T18:03:44.709Z,14.65
2024-02-02T18:06:46.935Z,13.25
2024-02-02T18:09:49.212Z,16.50
2024-02-02T18:12:52.011Z,17.27
2024-02-02T18:15:54.485Z,16.98
2024-02-02T18:18:56.813Z,19.23
2024-02-02T18:21:58.983Z,19.60
2024-02-02T18:25:01.250Z,21.73
2024-02-02T18:28:03.698Z,20.55
2024-02-02T18:31:05.904Z,18.98
2024-02-02T18:34:08.357Z,17.90
2024-02-02T18:37:10.705Z,18.95
2024-02-02T18:40:13.675Z,21.05
2024-02-02T18:43:15.825Z,23.52
2024-02-02T18:46:27.594Z,22.25
2024-02-02T18:49:33.255Z,23.55
2024-02-02T18:52:36.368Z,25.40
2024-02-02T18:55:38.675Z,25.50
2024-02-02T18:58:46.136Z,27.90
2024-02-02T19:01:49.261Z,26.92
2024-02-02T19:04:52.339Z,29.80
2024-02-02T19:07:54.744Z,30.02
2024-02-02T19:10:57.154Z,33.55
2024-02-02T19:14:00.580Z,34.25
2024-02-02T19:17:02.716Z,36.28
2024-02-02T19:20:05.337Z,32.78
2024-02-02T19:23:07.866Z,33.22
2024-02-02T19:26:10.981Z,35.03
2024-02-02T19:29:13.316Z,35.45
2024-02-02T19:32:16.630Z,37.03
2024-02-02T19:35:18.825Z,35.38
2024-02-02T19:38:20.974Z,33.90
2024-02-02T19:41:27.320Z,34.20
2024-02-02T19:44:29.435Z,29.42
2024-02-02T19:47:31.734Z,31.42
2024-02-02T19:50:33.825Z,29.48
2024-02-02T19:53:36.459Z,31.02
2024-02-02T19:56:38.612Z,28.00
2024-02-02T19:59:41.994Z,27.85
2024-02-02T20:02:48.857Z,27.38
2024-02-02T20:05:51.602Z,30.33
2024-02-02T20:08:53.793Z,29.23
2024-02-02T20:11:56.279Z,28.73
2024-02-02T20:14:58.865Z,28.38
2024-02-02T20:18:03.208Z,27.40
2024-02-02T20:21:05.813Z,26.58
2024-02-02T20:24:08.369Z,28.42
2024-02-02T20:27:10.824Z,26.55
2024-02-02T20:30:14.132Z,27.27
2024-02-02T20:33:16.854Z,25.35
2024-02-02T20:36:21.315Z,26.95
2024-02-02T20:39:23.714Z,27.75
2024-02-02T20:42:26.023Z,27.30
2024-02-02T20:45:28.835Z,25.38
2024-02-02T20:48:31.094Z,27.85
2024-02-02T20:51:33.494Z,25.40
2024-02-02T20:54:35.783Z,30.92
2024-02-02T20:57:38.162Z,29.42
2024-02-02T21:00:40.810Z,25.10
2024-02-02T21:03:43.335Z,26.48
2024-02-02T21:06:45.859Z,25.48
2024-02-02T21:09:48.265Z,27.38
2024-02-02T21:12:50.486Z,28.85
2024-02-02T21:15:54.037Z,28.75
2024-02-02T21:18:57.829Z,26.75
2024-02-02T21:22:02.845Z,26.77
2024-02-02T21:25:06.014Z,24.73
2024-02-02T21:28:08.241Z,24.33
2024-02-02T21:31:10.657Z,22.45
2024-02-02T21:34:13.035Z,25.67
2024-02-02T21:37:15.655Z,25.65
2024-02-02T21:40:18.076Z,25.20
2024-02-02T21:43:20.275Z,26.52
2024-02-02T21:46:22.665Z,26.25
2024-02-02T21:49:24.960Z,25.65
2024-02-02T21:52:27.374Z,26.88
2024-02-02T21:55:29.565Z,25.50
2024-02-02T21:58:32.535Z,24.17
2024-02-02T22:01:39.418Z,24.38
2024-02-02T22:04:41.698Z,23.05
2024-02-02T22:07:43.962Z,24.98
2024-02-02T22:10:46.302Z,28.40
2024-02-02T22:13:49.521Z,25.30
2024-02-02T22:16:51.856Z,28.25
2024-02-02T22:19:54.241Z,27.98
2024-02-02T22:22:56.468Z,27.13
2024-02-02T22:25:59.055Z,25.88
2024-02-02T22:29:02.078Z,26.25
2024-02-02T22:32:04.892Z,26.45
2024-02-02T22:35:07.853Z,22.27
2024-02-02T22:38:10.152Z,23.73
2024-02-02T22:41:32.221Z,22.13
2024-02-02T22:44:36.504Z,20.67
2024-02-02T22:47:39.658Z,20.52
2024-02-02T22:50:41.896Z,20.98
2024-02-02T22:53:44.265Z,18.67
2024-02-02T22:56:46.355Z,18.58
2024-02-02T22:59:53.642Z,19.67
2024-02-02T23:03:01.773Z,19.20
2024-02-02T23:06:05.343Z,22.58
2024-02-02T23:09:07.687Z,18.88
2024-02-02T23:12:10.913Z,18.58
2024-02-02T23:15:13.292Z,19.77
2024-02-02T23:18:15.662Z,20.25
2024-02-02T23:21:17.873Z,18.80
2024-02-02T23:24:20.046Z,17.08
2024-02-02T23:27:22.344Z,18.17
2024-02-02T23:30:24.790Z,18.88
2024-02-02T23:33:27.788Z,20.48
2024-02-02T23:36:30.089Z,18.00
2024-02-02T23:39:32.286Z,17.58
2024-02-02T23:42:34.598Z,20.20
2024-02-02T23:45:36.793Z,17.38
2024-02-02T23:48:39.120Z,21.20
2024-02-02T23:51:41.748Z,18.90
2024-02-02T23:54:44.221Z,17.88
2024-02-02T23:57:46.641Z,17.48
